Time;durP1;ratioP1;P1;durP2;ratioP2;P2;SDS_P1;SDS_P2;PMS_P1;PMS_P2;Temp;Humidity;BMP_temperature;BMP_pressure;BME280_temperature;BME280_humidity;BME280_pressure;Samples;Min_cycle;Max_cycle;Signal;HPM_P1;HPM_P2
2022/11/03 00:00:15;;;;;;;10.93;5.47;;;;;;;22.60;48.73;102585.03;4198696;28;20086;-68
2022/11/03 00:02:16;;;;;;;7.72;4.90;;;;;;;22.61;48.77;102581.13;4188126;28;20052;-68
2022/11/03 00:04:23;;;;;;;7.47;4.80;;;;;;;22.59;48.65;102586.13;4190746;28;20094;-68
2022/11/03 00:06:24;;;;;;;8.20;5.15;;;;;;;22.52;48.85;102568.69;4212977;28;20044;-68
2022/11/03 00:08:25;;;;;;;10.65;5.25;;;;;;;22.55;48.72;102576.56;4199318;28;20436;-67
2022/11/03 00:10:26;;;;;;;5.90;3.97;;;;;;;22.54;48.81;102580.44;4199404;28;20451;-67
2022/11/03 00:12:27;;;;;;;9.38;5.65;;;;;;;22.60;49.07;102589.75;4199944;28;20468;-71
2022/11/03 00:14:29;;;;;;;18.05;5.50;;;;;;;22.61;49.23;102592.28;4195965;28;20054;-70
2022/11/03 00:16:31;;;;;;;15.10;5.68;;;;;;;22.60;49.41;102596.19;4199215;28;20109;-70
2022/11/03 00:18:32;;;;;;;9.43;4.80;;;;;;;22.59;49.41;102588.91;4198564;28;20106;-69
2022/11/03 00:20:36;;;;;;;8.07;4.78;;;;;;;22.60;49.47;102590.59;4191862;28;20087;-69
2022/11/03 00:22:37;;;;;;;9.48;4.93;;;;;;;22.61;49.60;102595.09;4198420;28;20049;-69
2022/11/03 00:24:39;;;;;;;8.35;4.80;;;;;;;22.62;49.10;102595.94;4197198;28;20040;-69
2022/11/03 00:26:40;;;;;;;6.72;4.55;;;;;;;22.53;49.09;102587.13;4183654;28;20106;-69
2022/11/03 00:28:44;;;;;;;8.38;5.40;;;;;;;22.58;49.21;102598.38;4189721;28;20082;-68
2022/11/03 00:30:45;;;;;;;8.97;5.00;;;;;;;22.64;49.12;102602.97;4192758;28;20052;-69
2022/11/03 00:32:47;;;;;;;9.60;5.18;;;;;;;22.65;49.26;102599.06;4196504;28;20040;-68
2022/11/03 00:34:48;;;;;;;9.82;5.22;;;;;;;22.47;49.15;102575.03;4194804;28;20021;-68
2022/11/03 00:36:52;;;;;;;9.80;5.43;;;;;;;22.64;49.30;102600.16;4193167;28;20036;-69
2022/11/03 00:38:54;;;;;;;6.68;4.68;;;;;;;22.65;49.35;102592.63;4189149;28;20106;-69
2022/11/03 00:41:00;;;;;;;11.82;5.20;;;;;;;22.64;49.26;102597.38;4199493;28;20024;-69
2022/11/03 00:43:02;;;;;;;8.25;4.82;;;;;;;22.67;49.11;102596.84;4198524;28;20044;-68
2022/11/03 00:45:06;;;;;;;9.95;5.75;;;;;;;22.66;49.21;102589.59;4193892;28;20045;-69
2022/11/03 00:47:07;;;;;;;12.30;5.30;;;;;;;22.63;49.46;102590.09;4185025;28;20052;-68
2022/11/03 00:49:08;;;;;;;9.02;5.03;;;;;;;22.68;49.03;102603.28;4199023;28;20036;-69
2022/11/03 00:51:12;;;;;;;5.88;4.40;;;;;;;22.67;49.28;102599.66;4196075;28;20109;-69
2022/11/03 00:53:13;;;;;;;10.35;5.35;;;;;;;22.67;49.36;102596.84;4195524;28;20089;-69
2022/11/03 00:55:15;;;;;;;7.55;5.43;;;;;;;22.67;49.28;102591.28;4197101;28;20040;-69
2022/11/03 00:57:16;;;;;;;7.72;4.72;;;;;;;22.69;49.33;102593.81;4199467;28;20029;-69
2022/11/03 00:59:17;;;;;;;9.30;5.03;;;;;;;22.67;49.43;102587.63;4199058;28;20040;-69
2022/11/03 01:01:21;;;;;;;6.97;4.95;;;;;;;22.57;49.63;102571.56;4188021;28;20436;-69
2022/11/03 01:03:23;;;;;;;7.55;4.63;;;;;;;22.64;49.65;102586.22;4197330;28;20098;-68
2022/11/03 01:07:49;;;;;;;10.35;5.45;;;;;;;22.68;49.44;102598.56;4199389;28;20082;-69
2022/11/03 01:09:50;;;;;;;9.63;5.07;;;;;;;22.68;49.80;102598.56;4185521;28;20048;-69
2022/11/03 01:11:59;;;;;;;10.95;4.90;;;;;;;22.64;49.57;102590.97;4195148;28;20074;-68
2022/11/03 01:14:00;;;;;;;7.78;5.18;;;;;;;22.68;49.55;102597.69;4198169;28;20097;-69
2022/11/03 01:16:04;;;;;;;11.05;5.13;;;;;;;22.68;49.68;102603.28;4198466;28;20105;-68
2022/11/03 01:18:05;;;;;;;8.90;4.85;;;;;;;22.69;49.61;102605.84;4198764;28;20484;-68
2022/11/03 01:20:07;;;;;;;9.25;4.93;;;;;;;22.68;49.51;102604.16;4184767;28;20044;-68
2022/11/03 01:22:09;;;;;;;10.38;6.38;;;;;;;22.68;49.69;102598.56;4194138;28;20032;-68
2022/11/03 01:24:29;;;;;;;9.02;4.72;;;;;;;22.61;49.36;102595.09;4197916;28;20472;-69
2022/11/03 01:26:30;;;;;;;11.32;5.18;;;;;;;22.70;49.37;102601.09;4196596;28;20044;-70
2022/11/03 01:28:38;;;;;;;9.32;4.90;;;;;;;22.68;49.73;102603.28;4192544;28;20475;-70
2022/11/03 01:30:39;;;;;;;7.82;4.53;;;;;;;22.69;49.72;102600.25;4181633;28;20484;-70
2022/11/03 01:32:40;;;;;;;9.88;5.15;;;;;;;22.55;49.53;102576.56;4184837;28;20020;-70
2022/11/03 01:34:41;;;;;;;9.93;5.20;;;;;;;22.68;49.67;102597.69;4198413;28;20484;-68
2022/11/03 01:36:43;;;;;;;9.32;4.90;;;;;;;22.69;49.47;102596.63;4191381;28;20039;-68
2022/11/03 01:38:45;;;;;;;8.25;4.57;;;;;;;22.65;49.67;102590.69;4193736;28;20122;-68
2022/11/03 01:40:46;;;;;;;8.18;4.57;;;;;;;22.68;49.96;102603.28;4190073;28;20044;-68
2022/11/03 01:42:47;;;;;;;7.72;5.00;;;;;;;22.62;50.02;102596.78;4196049;28;20102;-68
2022/11/03 01:44:51;;;;;;;10.40;4.68;;;;;;;22.48;50.35;102581.47;4195066;28;20040;-70
2022/11/03 01:47:14;;;;;;;11.07;5.22;;;;;;;22.60;50.42;102606.50;4194400;28;20483;-67
2022/11/03 01:49:26;;;;;;;8.23;4.60;;;;;;;22.60;50.34;102601.78;4195199;28;20098;-67
2022/11/03 01:51:29;;;;;;;9.88;4.72;;;;;;;22.56;50.28;102597.78;4181143;28;20040;-66
2022/11/03 01:53:31;;;;;;;9.80;4.82;;;;;;;22.62;50.31;102610.72;4185448;28;20541;-67
2022/11/03 01:55:35;;;;;;;9.68;4.50;;;;;;;22.61;50.42;102608.19;4189605;28;20098;-67
2022/11/03 01:57:46;;;;;;;11.07;4.35;;;;;;;22.60;50.30;102621.31;4196385;28;20090;-66
2022/11/03 01:59:48;;;;;;;7.60;5.22;;;;;;;22.60;50.34;102624.09;4197961;28;20044;-67
2022/11/03 02:01:49;;;;;;;10.13;4.35;;;;;;;22.60;50.27;102623.25;4197127;28;20082;-67
2022/11/03 02:04:03;;;;;;;9.43;4.68;;;;;;;22.58;50.18;102634.63;4196546;28;20117;-67
2022/11/03 02:06:11;;;;;;;8.55;4.78;;;;;;;22.57;50.46;102630.16;4197391;28;20094;-67
2022/11/03 02:08:17;;;;;;;10.15;5.15;;;;;;;22.43;50.33;102612.06;4196754;28;20045;-67
2022/11/03 02:10:19;;;;;;;10.77;4.57;;;;;;;22.58;50.45;102638.28;4196689;28;20560;-67
2022/11/03 02:12:22;;;;;;;8.45;5.07;;;;;;;22.58;50.47;102637.44;4194403;28;20078;-67
2022/11/03 02:14:23;;;;;;;8.38;4.35;;;;;;;22.55;50.20;102635.16;4193288;28;20537;-67
2022/11/03 02:16:30;;;;;;;9.60;4.38;;;;;;;22.56;50.49;102634.06;4196114;28;20430;-69
2022/11/03 02:18:33;;;;;;;11.85;5.45;;;;;;;22.56;50.51;102640.47;4192506;28;20041;-68
2022/11/03 02:20:35;;;;;;;12.57;4.95;;;;;;;22.57;50.62;102644.13;4186927;28;20049;-69
2022/11/03 02:22:57;;;;;;;9.35;4.53;;;;;;;22.55;50.40;102643.53;4191747;28;20066;-68
2022/11/03 02:25:37;;;;;;;7.38;4.72;;;;;;;22.46;50.37;102636.66;4198432;28;20040;-68
2022/11/03 02:27:39;;;;;;;9.98;4.40;;;;;;;22.59;50.44;102650.31;4189033;28;20029;-68
2022/11/03 02:29:40;;;;;;;8.60;4.60;;;;;;;22.38;50.55;102610.03;4187691;28;20041;-69
2022/11/03 02:31:48;;;;;;;9.02;4.82;;;;;;;22.56;50.26;102642.44;4180570;28;20141;-67
2022/11/03 02:34:10;;;;;;;20.63;6.28;;;;;;;22.62;50.54;102660.94;4195724;28;20028;-69
2022/11/03 02:36:41;;;;;;;20.73;5.53;;;;;;;22.62;50.44;102660.94;4196575;28;20086;-68
2022/11/03 02:39:07;;;;;;;17.75;5.22;;;;;;;22.56;50.29;102643.28;4190502;28;20036;-67
2022/11/03 02:41:11;;;;;;;11.55;4.82;;;;;;;22.55;50.28;102643.53;4193951;28;20048;-68
2022/11/03 02:43:17;;;;;;;9.73;4.43;;;;;;;22.49;50.24;102636.16;4196980;28;20094;-68
2022/11/03 02:45:21;;;;;;;8.00;4.07;;;;;;;22.35;50.34;102620.81;4199056;28;20036;-68
2022/11/03 02:47:26;;;;;;;8.47;4.53;;;;;;;22.60;50.04;102660.38;4195557;28;20049;-67
2022/11/03 02:49:27;;;;;;;;;;;;;;;22.60;50.17;102665.09;4195452;28;20045;-68
2022/11/03 02:51:28;;;;;;;7.22;4.85;;;;;;;22.68;49.97;102665.53;4196950;28;20019;-68
2022/11/03 02:53:30;;;;;;;9.00;4.75;;;;;;;22.64;50.29;102669.94;4184426;28;20553;-68
2022/11/03 02:55:38;;;;;;;14.38;5.10;;;;;;;22.67;49.88;102674.13;4196639;28;20037;-68
2022/11/03 02:57:49;;;;;;;10.00;4.35;;;;;;;22.64;50.38;102669.94;4196075;28;20098;-67
2022/11/03 03:00:05;;;;;;;7.22;4.00;;;;;;;22.62;50.09;102660.94;4197388;28;20453;-68
2022/11/03 03:02:14;;;;;;;11.07;4.68;;;;;;;22.46;50.19;102633.88;4198606;28;20040;-68
2022/11/03 03:04:27;;;;;;;11.68;5.25;;;;;;;22.47;50.12;102647.56;4197363;28;20037;-68
2022/11/03 03:06:50;;;;;;;7.55;4.68;;;;;;;22.63;50.20;102671.00;4187764;28;20090;-67
2022/11/03 03:09:00;;;;;;;9.50;4.65;;;;;;;22.61;50.23;102670.41;4195159;28;20048;-67
2022/11/03 03:11:07;;;;;;;10.57;4.45;;;;;;;22.61;50.31;102670.41;4197567;28;20420;-67
2022/11/03 03:13:14;;;;;;;8.05;4.32;;;;;;;22.63;50.13;102684.09;4196483;28;20041;-67
2022/11/03 03:15:17;;;;;;;9.32;4.80;;;;;;;22.65;50.38;102679.97;4196829;28;20086;-68
2022/11/03 03:17:23;;;;;;;12.65;4.90;;;;;;;22.69;50.22;102683.97;4194233;28;20438;-67
2022/11/03 03:19:46;;;;;;;12.45;4.88;;;;;;;22.45;50.10;102651.69;4196511;28;20102;-67
2022/11/03 03:21:52;;;;;;;7.82;4.18;;;;;;;22.70;50.14;102690.41;4190092;28;20103;-68
2022/11/03 03:24:05;;;;;;;9.95;5.53;;;;;;;22.68;50.28;102695.38;4196810;28;20066;-68
2022/11/03 03:26:33;;;;;;;7.85;4.55;;;;;;;22.68;50.41;102687.88;4196685;28;20460;-66
2022/11/03 03:28:56;;;;;;;10.82;4.50;;;;;;;22.65;50.25;102687.50;4192770;28;20029;-68
2022/11/03 03:31:04;;;;;;;7.47;4.25;;;;;;;22.44;50.23;102659.22;4186637;28;20040;-69
2022/11/03 03:33:08;;;;;;;9.43;4.63;;;;;;;22.53;50.14;102668.03;4197529;28;20098;-69
2022/11/03 03:35:16;;;;;;;7.47;3.95;;;;;;;22.71;49.94;102694.88;4192191;28;20052;-69
2022/11/03 03:37:26;;;;;;;8.07;4.40;;;;;;;22.71;50.26;102697.66;4198158;28;20053;-69
2022/11/03 03:39:33;;;;;;;10.32;4.88;;;;;;;22.49;50.44;102656.50;4183516;28;20037;-69
2022/11/03 03:41:36;;;;;;;9.07;4.35;;;;;;;22.55;50.07;102660.28;4183884;28;20032;-69
2022/11/03 03:43:42;;;;;;;10.23;4.60;;;;;;;22.54;50.75;102661.34;4189349;28;20102;-69
2022/11/03 03:45:47;;;;;;;11.43;4.45;;;;;;;22.76;50.43;102683.78;4199589;28;20154;-69
2022/11/03 03:47:48;;;;;;;9.68;4.93;;;;;;;22.78;50.29;102690.00;4198324;28;20048;-69
2022/11/03 03:49:50;;;;;;;12.05;4.68;;;;;;;22.72;50.48;102680.66;4200148;28;20025;-69
2022/11/03 03:51:51;;;;;;;7.20;4.30;;;;;;;22.80;50.65;102691.41;4199709;28;20101;-69
2022/11/03 03:53:54;;;;;;;11.95;4.70;;;;;;;22.80;50.54;102683.03;4198067;28;20044;-69
2022/11/03 03:55:56;;;;;;;7.90;4.55;;;;;;;22.81;50.46;102687.50;4199710;28;20040;-69
2022/11/03 03:58:00;;;;;;;7.22;4.35;;;;;;;22.82;50.52;102689.22;4200246;28;20037;-69
2022/11/03 04:00:03;;;;;;;9.35;4.90;;;;;;;22.81;50.48;102687.50;4199975;28;20466;-68
2022/11/03 04:02:04;;;;;;;9.63;4.97;;;;;;;22.81;50.23;102693.09;4183957;28;20037;-68
2022/11/03 04:04:10;;;;;;;8.88;5.43;;;;;;;22.82;50.45;102682.81;4183430;28;20135;-69
2022/11/03 04:06:11;;;;;;;9.73;5.03;;;;;;;22.72;50.31;102672.28;4182981;28;20106;-69
2022/11/03 04:08:14;;;;;;;6.82;4.47;;;;;;;22.83;50.22;102690.91;4181761;28;20041;-69
2022/11/03 04:10:20;;;;;;;7.57;4.45;;;;;;;22.83;49.89;102690.91;4205213;28;20048;-69
2022/11/03 04:23:59;;;;;;;8.32;4.50;;;;;;;22.74;49.87;102675.69;4199855;28;20090;-69
2022/11/03 04:26:01;;;;;;;9.25;4.30;;;;;;;22.85;49.87;102693.44;4198321;28;20456;-69
2022/11/03 04:28:18;;;;;;;6.43;4.43;;;;;;;22.84;49.81;102694.56;4212752;28;20089;-69
2022/11/03 04:30:23;;;;;;;9.07;4.65;;;;;;;22.85;49.45;102696.25;4201945;28;20090;-69
2022/11/03 04:32:25;;;;;;;7.15;4.50;;;;;;;22.81;49.82;102690.31;4198915;28;20037;-69
2022/11/03 04:34:32;;;;;;;6.63;4.78;;;;;;;22.82;49.54;102683.66;4198743;28;20036;-69
2022/11/03 04:36:34;;;;;;;6.68;4.45;;;;;;;22.69;49.77;102666.38;4198466;28;20049;-70
2022/11/03 04:38:39;;;;;;;8.73;4.75;;;;;;;22.78;49.50;102688.03;4199451;28;20032;-69
2022/11/03 04:41:02;;;;;;;9.00;5.05;;;;;;;22.83;49.40;102682.53;4199396;28;20468;-70
2022/11/03 04:43:09;;;;;;;9.45;4.80;;;;;;;22.84;49.50;102686.19;4197564;28;20037;-69
2022/11/03 04:45:15;;;;;;;6.63;4.40;;;;;;;22.83;49.51;102684.50;4200193;28;20032;-69
2022/11/03 04:47:17;;;;;;;7.38;5.32;;;;;;;22.84;49.25;102687.03;4199393;28;20032;-69
2022/11/03 04:49:22;;;;;;;7.75;4.63;;;;;;;22.69;49.45;102655.22;4197303;28;20109;-69
2022/11/03 04:51:26;;;;;;;9.88;4.50;;;;;;;22.82;49.59;102683.66;4199238;28;20028;-69
2022/11/03 04:53:31;;;;;;;8.60;5.07;;;;;;;22.62;49.34;102646.16;4199276;28;20055;-69
2022/11/03 04:55:35;;;;;;;6.28;4.35;;;;;;;22.76;49.41;102673.47;4198858;28;20273;-69
2022/11/03 04:57:36;;;;;;;8.13;4.50;;;;;;;22.82;49.29;102680.84;4199293;28;20033;-69
2022/11/03 04:59:37;;;;;;;9.80;5.47;;;;;;;22.83;49.20;102684.50;4199262;28;20037;-69
2022/11/03 05:01:39;;;;;;;7.15;4.63;;;;;;;22.82;49.32;102682.81;4199620;28;20041;-70
2022/11/03 05:03:42;;;;;;;9.02;4.97;;;;;;;22.80;49.20;102685.84;4198545;28;20117;-68
2022/11/03 05:05:52;;;;;;;7.95;4.90;;;;;;;22.79;49.44;102677.72;4198960;28;20036;-69
2022/11/03 05:07:58;;;;;;;7.28;4.53;;;;;;;22.69;49.39;102658.84;4197221;28;20044;-69
2022/11/03 05:09:59;;;;;;;;;;;;;;;22.78;49.41;102682.47;4198698;28;20040;-69
2022/11/03 05:12:01;;;;;;;6.25;4.63;;;;;;;22.83;49.27;102676.97;4198429;28;19912;-69
2022/11/03 05:14:13;;;;;;;9.27;4.72;;;;;;;22.83;48.99;102674.16;4197921;28;20446;-68
2022/11/03 05:16:15;;;;;;;9.43;4.63;;;;;;;22.82;49.16;102672.50;4198583;28;20110;-69
2022/11/03 05:18:26;;;;;;;7.30;4.70;;;;;;;22.79;49.11;102678.56;4205605;28;20036;-69
2022/11/03 05:20:37;;;;;;;7.60;4.78;;;;;;;22.80;49.13;102676.63;4215628;28;20121;-69
2022/11/03 05:22:41;;;;;;;6.80;4.55;;;;;;;22.81;49.16;102681.09;4215700;28;20082;-69
2022/11/03 05:24:43;;;;;;;6.70;4.57;;;;;;;22.81;48.95;102673.56;4215786;28;20031;-68
2022/11/03 05:26:44;;;;;;;4.95;4.45;;;;;;;22.78;49.06;102665.72;4214028;28;20368;-69
2022/11/03 05:28:50;;;;;;;6.43;4.70;;;;;;;22.79;49.23;102667.41;4203227;28;20090;-69
2022/11/03 05:30:52;;;;;;;7.75;4.53;;;;;;;22.78;48.90;102679.66;4197090;28;20421;-69
2022/11/03 05:32:53;;;;;;;7.30;4.97;;;;;;;22.78;48.93;102671.28;4202530;28;20047;-69
2022/11/03 05:34:58;;;;;;;6.68;4.63;;;;;;;22.78;49.02;102676.88;4198052;28;20434;-69
2022/11/03 05:37:12;;;;;;;;;;;;;;;22.77;49.03;102668.75;4198026;28;20041;-69
2022/11/03 05:39:36;;;;;;;7.22;4.80;;;;;;;22.81;48.97;102669.94;4198468;28;19978;-69
2022/11/03 05:41:37;;;;;;;7.70;4.85;;;;;;;22.82;48.76;102668.84;4197723;28;20036;-69
2022/11/03 05:43:38;;;;;;;8.65;5.45;;;;;;;22.77;48.80;102666.81;4200248;28;20422;-69
2022/11/03 05:45:41;;;;;;;6.97;5.00;;;;;;;22.76;48.79;102673.47;4197408;28;20032;-69
2022/11/03 05:47:42;;;;;;;6.63;5.22;;;;;;;22.77;48.71;102675.19;4203962;28;20043;-69
2022/11/03 05:49:46;;;;;;;7.93;5.03;;;;;;;22.78;48.91;102681.63;4208596;28;20041;-70
2022/11/03 05:51:48;;;;;;;9.02;4.93;;;;;;;22.68;48.92;102665.53;4197227;28;20036;-69
2022/11/03 05:54:03;;;;;;;6.85;5.07;;;;;;;22.74;48.75;102681.28;4197942;28;20472;-69
2022/11/03 05:56:16;;;;;;;7.90;5.00;;;;;;;22.75;48.68;102682.94;4198151;28;20090;-69
2022/11/03 05:58:28;;;;;;;6.20;4.63;;;;;;;22.74;48.68;102670.09;4202242;28;20066;-69
2022/11/03 06:00:36;;;;;;;7.28;4.90;;;;;;;22.73;48.74;102673.16;4198021;28;20557;-69
2022/11/03 06:02:41;;;;;;;5.65;4.70;;;;;;;22.71;48.69;102676.19;4198333;28;20424;-70
2022/11/03 06:04:43;;;;;;;5.07;4.38;;;;;;;22.71;48.79;102670.59;4198242;28;20040;-69
2022/11/03 06:06:50;;;;;;;6.50;4.82;;;;;;;22.70;48.67;102680.06;4197325;28;20032;-69
2022/11/03 06:08:52;;;;;;;6.55;4.78;;;;;;;22.70;48.61;102674.50;4199111;28;20106;-69
2022/11/03 06:10:57;;;;;;;7.93;5.18;;;;;;;22.67;48.94;102674.97;4198055;28;20036;-69
2022/11/03 06:13:12;;;;;;;7.93;4.47;;;;;;;22.46;48.84;102642.25;4198041;28;20096;-70
2022/11/03 06:15:32;;;;;;;8.50;5.32;;;;;;;22.65;48.73;102663.25;4197575;28;20036;-69
2022/11/03 06:17:36;;;;;;;7.00;4.72;;;;;;;22.67;48.87;102680.56;4198176;28;20093;-69
2022/11/03 06:19:41;;;;;;;6.55;4.35;;;;;;;22.67;48.73;102671.34;4197910;28;20057;-69
2022/11/03 06:21:43;;;;;;;7.13;5.35;;;;;;;22.68;48.70;102673.03;4197796;28;20036;-69
2022/11/03 06:23:44;;;;;;;8.48;4.63;;;;;;;22.69;48.95;102678.38;4197990;28;20094;-69
2022/11/03 06:25:48;;;;;;;5.38;4.65;;;;;;;22.66;48.62;102683.63;4195319;28;20037;-69
2022/11/03 06:27:51;;;;;;;7.03;4.73;;;;;;;22.21;48.73;102604.38;4197310;28;20037;-69
2022/11/03 06:30:23;;;;;;;9.13;5.47;;;;;;;22.62;48.67;102679.63;4197732;28;20032;-69
2022/11/03 06:32:24;;;;;;;7.18;4.80;;;;;;;22.62;48.80;102677.69;4201211;28;20044;-69
2022/11/03 06:34:49;;;;;;;6.75;4.85;;;;;;;22.57;48.88;102680.38;4197786;28;20549;-69
2022/11/03 06:36:50;;;;;;;7.93;4.78;;;;;;;22.60;48.92;102679.06;4197844;28;20081;-69
2022/11/03 06:39:02;;;;;;;7.53;5.03;;;;;;;22.62;48.63;102688.00;4197847;28;20032;-69
2022/11/03 06:41:04;;;;;;;6.75;4.97;;;;;;;22.59;48.67;102678.22;4197412;28;20040;-69
2022/11/03 06:43:13;;;;;;;6.57;4.90;;;;;;;22.60;48.65;102682.69;4195893;28;20040;-69
2022/11/03 06:45:21;;;;;;;5.90;4.55;;;;;;;22.60;48.54;102674.31;4180514;28;20091;-69
2022/11/03 06:47:27;;;;;;;7.55;4.80;;;;;;;22.59;48.79;102683.78;4180714;28;20094;-69
2022/11/03 06:49:34;;;;;;;6.07;4.93;;;;;;;22.57;48.89;102691.53;4181186;28;20380;-68
2022/11/03 06:51:36;;;;;;;7.18;4.55;;;;;;;22.55;48.70;102688.19;4196592;28;20109;-68
2022/11/03 06:53:40;;;;;;;6.72;5.00;;;;;;;22.30;48.78;102646.66;4197859;28;20101;-68
2022/11/03 06:55:42;;;;;;;7.00;4.22;;;;;;;22.61;48.58;102687.16;4197081;28;20045;-68
2022/11/03 06:57:46;;;;;;;7.68;5.28;;;;;;;22.63;48.29;102693.31;4197315;28;20033;-68
2022/11/03 06:59:49;;;;;;;5.90;4.50;;;;;;;22.64;48.51;102694.19;4200480;28;20109;-68
2022/11/03 07:01:57;;;;;;;6.90;5.13;;;;;;;22.63;48.43;102684.94;4214138;28;20093;-68
2022/11/03 07:04:27;;;;;;;7.55;4.88;;;;;;;22.61;48.59;102691.91;4214010;28;20032;-68
2022/11/03 07:06:33;;;;;;;6.85;5.43;;;;;;;22.62;48.25;102691.63;4206735;28;20032;-68
2022/11/03 07:08:43;;;;;;;6.55;5.13;;;;;;;22.57;48.34;102686.81;4217453;28;20483;-68
2022/11/03 07:10:44;;;;;;;7.03;4.32;;;;;;;22.61;48.47;102689.94;4217333;28;20032;-68
2022/11/03 07:12:46;;;;;;;6.88;4.70;;;;;;;22.61;48.56;102687.16;4217598;28;20044;-68
2022/11/03 07:14:47;;;;;;;7.60;5.20;;;;;;;22.61;48.28;102686.31;4216149;28;20044;-68
2022/11/03 07:16:53;;;;;;;6.38;5.28;;;;;;;22.59;48.70;102686.56;4216503;28;20040;-68
2022/11/03 07:18:56;;;;;;;7.22;4.93;;;;;;;22.48;48.32;102671.56;4217437;28;20113;-68
2022/11/03 07:21:03;;;;;;;7.72;5.55;;;;;;;22.60;48.49;102685.47;4217320;28;20040;-68
2022/11/03 07:23:12;;;;;;;7.25;4.80;;;;;;;22.60;48.45;102685.47;4217389;28;20495;-68
2022/11/03 07:25:20;;;;;;;9.27;5.40;;;;;;;22.58;48.24;102687.66;4216778;28;20040;-68
2022/11/03 07:27:35;;;;;;;9.35;5.55;;;;;;;22.47;48.28;102669.03;4207586;28;20458;-68
2022/11/03 07:29:40;;;;;;;7.20;5.47;;;;;;;22.58;48.41;102690.44;4200670;28;20445;-68
2022/11/03 07:31:41;;;;;;;6.20;5.20;;;;;;;22.58;48.35;102699.66;4200668;28;20029;-68
2022/11/03 07:33:43;;;;;;;6.78;5.05;;;;;;;22.59;48.49;102692.16;4200272;28;20032;-68
2022/11/03 07:35:48;;;;;;;6.65;4.57;;;;;;;22.58;48.30;102687.66;4202773;28;20122;-68
2022/11/03 07:37:51;;;;;;;6.10;5.38;;;;;;;22.57;48.40;102697.97;4200500;28;20033;-68
2022/11/03 07:39:52;;;;;;;6.85;5.43;;;;;;;22.53;48.38;102690.34;4200059;28;20074;-67
2022/11/03 07:41:54;;;;;;;7.10;5.13;;;;;;;22.45;48.43;102671.22;4199574;28;20094;-68
2022/11/03 07:43:58;;;;;;;6.20;5.18;;;;;;;22.51;48.34;102693.41;4201552;28;20028;-68
2022/11/03 07:46:04;;;;;;;6.15;4.93;;;;;;;22.52;48.18;102700.66;4194596;28;20090;-68
2022/11/03 07:48:27;;;;;;;7.38;4.72;;;;;;;22.49;48.59;102700.31;4199759;28;20040;-67
2022/11/03 07:50:29;;;;;;;5.10;4.32;;;;;;;22.53;48.45;102695.94;4203990;28;20101;-68
2022/11/03 07:52:30;;;;;;;8.75;5.47;;;;;;;22.52;48.56;102694.25;4216899;28;20093;-68
2022/11/03 07:54:33;;;;;;;7.88;4.63;;;;;;;22.52;48.13;102695.09;4215141;28;20036;-68
2022/11/03 07:56:45;;;;;;;7.47;5.05;;;;;;;22.49;48.36;102691.94;4199543;28;20040;-68
2022/11/03 07:59:07;;;;;;;7.35;5.22;;;;;;;22.51;48.23;102695.34;4199574;28;20537;-68
2022/11/03 08:01:48;;;;;;;8.90;5.10;;;;;;;22.25;48.21;102653.00;4199220;28;20059;-68
2022/11/03 08:03:50;;;;;;;6.32;4.97;;;;;;;22.40;48.26;102674.75;4164329;28;20037;-68
2022/11/03 08:05:54;;;;;;;7.45;5.30;;;;;;;22.42;48.22;102672.59;4164913;28;20473;-69
2022/11/03 08:07:56;;;;;;;8.98;5.47;;;;;;;22.49;48.10;102684.41;4198675;28;20048;-68
2022/11/03 08:10:00;;;;;;;6.32;5.07;;;;;;;22.53;48.07;102687.56;4216684;28;20097;-68
2022/11/03 08:12:01;;;;;;;7.53;4.88;;;;;;;22.51;48.31;102686.97;4216682;28;20073;-67
2022/11/03 08:14:02;;;;;;;5.90;4.53;;;;;;;22.52;48.22;102688.66;4216631;28;20101;-67
2022/11/03 08:16:04;;;;;;;5.88;4.80;;;;;;;22.50;48.09;102685.28;4202019;28;20033;-68
2022/11/03 08:18:05;;;;;;;6.88;5.20;;;;;;;22.51;48.11;102692.56;4203219;28;20106;-68
2022/11/03 08:20:07;;;;;;;6.88;4.75;;;;;;;22.48;48.24;102684.69;4199130;28;20102;-68
2022/11/03 08:22:08;;;;;;;6.00;4.72;;;;;;;22.48;47.96;102681.88;4203468;28;20557;-68
2022/11/03 08:24:09;;;;;;;9.02;5.40;;;;;;;22.48;48.19;102687.47;4199580;28;20063;-68
2022/11/03 08:26:11;;;;;;;6.82;5.10;;;;;;;22.44;47.99;102678.75;4209322;28;20377;-68
2022/11/03 08:28:12;;;;;;;7.30;5.22;;;;;;;22.47;48.10;102674.63;4197279;28;20075;-68
2022/11/03 08:30:13;;;;;;;8.85;5.60;;;;;;;22.46;48.25;102679.34;4199862;28;20086;-68
2022/11/03 08:32:15;;;;;;;6.78;5.30;;;;;;;22.46;48.04;102675.72;4197430;28;20461;-68
2022/11/03 08:34:16;;;;;;;6.97;5.25;;;;;;;22.40;48.00;102662.75;4203500;28;20105;-68
2022/11/03 08:36:19;;;;;;;5.78;4.30;;;;;;;22.46;48.06;102679.34;4198926;28;20102;-68
2022/11/03 08:38:23;;;;;;;6.15;4.70;;;;;;;22.47;47.90;102674.63;4199758;28;20079;-68
2022/11/03 08:40:24;;;;;;;6.18;4.53;;;;;;;22.42;48.31;102677.31;4199454;28;20438;-68
2022/11/03 08:42:26;;;;;;;6.88;4.85;;;;;;;22.42;48.00;102674.53;4198332;28;20102;-66
2022/11/03 08:44:27;;;;;;;7.57;5.15;;;;;;;22.44;47.86;102689.06;4199605;28;20036;-69
2022/11/03 08:46:28;;;;;;;5.88;4.22;;;;;;;22.40;47.86;102683.13;4198789;28;20106;-69
2022/11/03 08:48:30;;;;;;;6.40;4.60;;;;;;;22.41;47.96;102693.22;4198125;28;20503;-69
2022/11/03 08:50:31;;;;;;;7.18;4.82;;;;;;;22.40;48.00;102687.84;4200909;28;20048;-69
2022/11/03 08:52:33;;;;;;;6.93;4.30;;;;;;;22.40;48.18;102696.22;4198377;28;20052;-67
2022/11/03 08:54:34;;;;;;;7.45;5.32;;;;;;;22.38;48.24;102690.06;4198407;28;20036;-70
2022/11/03 08:56:35;;;;;;;6.05;5.05;;;;;;;22.35;48.20;102696.13;4182717;28;20044;-69
2022/11/03 08:58:37;;;;;;;7.03;4.82;;;;;;;22.39;48.15;102694.53;4199144;28;20048;-70
2022/11/03 09:00:38;;;;;;;5.88;4.57;;;;;;;22.39;48.23;102703.75;4199026;28;20102;-70
2022/11/03 09:02:40;;;;;;;6.45;5.10;;;;;;;22.39;48.17;102700.13;4196643;28;20483;-70
2022/11/03 09:04:41;;;;;;;7.65;4.53;;;;;;;22.34;48.25;102700.84;4198296;28;20029;-67
2022/11/03 09:06:42;;;;;;;6.50;4.72;;;;;;;22.37;48.06;102708.75;4196293;28;20045;-67
2022/11/03 09:08:45;;;;;;;7.78;4.88;;;;;;;22.38;48.16;102709.59;4199898;28;20471;-69
2022/11/03 09:10:49;;;;;;;6.63;5.00;;;;;;;22.37;48.30;102702.31;4199149;28;20033;-70
2022/11/03 09:12:53;;;;;;;6.90;4.80;;;;;;;22.23;48.19;102685.03;4202813;28;20576;-69
2022/11/03 09:14:57;;;;;;;6.45;5.32;;;;;;;22.37;48.09;102707.91;4198837;28;20040;-70
2022/11/03 09:16:58;;;;;;;5.70;4.43;;;;;;;22.38;48.03;102717.94;4212145;28;20093;-70
2022/11/03 09:19:02;;;;;;;6.47;5.10;;;;;;;22.26;48.22;102690.94;4215043;28;20070;-69
2022/11/03 09:21:03;;;;;;;6.75;4.50;;;;;;;22.35;48.34;102710.06;4215534;28;20044;-69
2022/11/03 09:23:05;;;;;;;7.32;4.68;;;;;;;22.33;47.89;102713.97;4215307;28;20036;-70
2022/11/03 09:25:07;;;;;;;5.35;4.65;;;;;;;22.35;48.04;102715.66;4215727;28;20501;-70
2022/11/03 09:27:08;;;;;;;5.85;4.60;;;;;;;22.34;47.79;102717.59;4201987;28;20536;-69
2022/11/03 09:29:09;;;;;;;5.72;4.68;;;;;;;22.31;47.75;102709.72;4197591;28;20041;-70
2022/11/03 09:31:11;;;;;;;6.60;4.95;;;;;;;22.35;47.80;102713.72;4198706;28;20044;-69
2022/11/03 09:33:12;;;;;;;7.00;5.07;;;;;;;22.36;47.91;102718.22;4198374;28;20094;-70
2022/11/03 09:35:13;;;;;;;6.45;4.80;;;;;;;22.35;48.05;102710.91;4198568;28;20024;-69
2022/11/03 09:37:15;;;;;;;5.38;4.55;;;;;;;22.24;47.80;102698.72;4198468;28;20548;-70
2022/11/03 09:39:17;;;;;;;6.03;5.15;;;;;;;22.36;47.76;102721.00;4202278;28;20097;-69
2022/11/03 09:41:18;;;;;;;6.88;4.90;;;;;;;22.38;47.76;102715.16;4182937;28;20041;-70
2022/11/03 09:43:34;;;;;;;7.32;4.80;;;;;;;22.27;47.78;102706.59;4198204;28;20105;-69
2022/11/03 09:45:40;;;;;;;4.85;4.28;;;;;;;22.35;48.21;102715.66;4197636;28;20041;-69
2022/11/03 09:47:45;;;;;;;6.80;5.00;;;;;;;22.36;48.07;102725.72;4200794;28;20036;-69
2022/11/03 09:49:47;;;;;;;6.10;4.80;;;;;;;22.35;47.75;102726.81;4194561;28;20041;-67
2022/11/03 09:51:48;;;;;;;5.97;4.85;;;;;;;22.32;48.00;102729.00;4197430;28;20094;-67
2022/11/03 09:53:50;;;;;;;6.30;4.75;;;;;;;22.32;48.14;102722.59;4198136;28;20044;-67
2022/11/03 09:55:51;;;;;;;6.95;4.60;;;;;;;22.31;47.83;102726.44;4198346;28;20044;-67